ETOU

Wiesbaden Army Airfield Airport

Wiesbaden, Germany
METAR ETOU 180826Z 16005KT 4000 -SN BR OVC005 00/00 A3014 RMK AO2A SLP216
Observed Flight Rules
Dec-18 @ 08:26 UTC (21 minutes ago) Instrument Flight Rules
Wind Visibility Clouds Conditions
160° at 5 knots 4,007 meters
  • Overcast at 500' AGL
  • Light Snow
  • Mist
Temperatures Readings
Current 0°C / 32°F
Dewpoint 0°C / 32°F
Humidity 100%
Altimeter 30.14" Hg
Pressure 1021.6 hPa
Elevation 141
METAR ETOU 180826Z 16005KT 4000 -SN BR OVC005 00/00 A3014 RMK AO2A SLP216
Observed Flight Rules
Dec-18 @ 08:26 UTC
(21 minutes ago)
IFR
Wind Visibility
160° at 5 knots 4,007 meters
Clouds
  • Overcast at 500' AGL
Conditions
  • Light Snow
  • Mist
Temperature Dewpoint
0°C / 32°F 0°C / 32°F
Humidity Altimeter Pressure
100% 30.14" Hg 1021.6 hPa